createdAt,value
2016-12-22T00:00:24.775Z,52.96
2016-12-22T00:01:24.757Z,53.72
2016-12-22T00:02:24.738Z,52.78
2016-12-22T00:03:24.722Z,52.78
2016-12-22T00:04:24.704Z,52.68
2016-12-22T00:05:24.686Z,52.96
2016-12-22T00:06:24.663Z,52.4
2016-12-22T00:07:24.647Z,51.64
2016-12-22T00:08:24.632Z,51.54
2016-12-22T00:09:24.609Z,50.89
2016-12-22T00:10:24.593Z,50.23
2016-12-22T00:11:24.574Z,49.85
2016-12-22T00:12:24.566Z,49.66
2016-12-22T00:13:24.534Z,48.34
2016-12-22T00:14:24.519Z,46.73
2016-12-22T00:15:24.500Z,47.02
2016-12-22T00:16:24.482Z,47.67
2016-12-22T00:17:24.462Z,48.15
2016-12-22T00:18:24.446Z,48.62
2016-12-22T00:19:24.424Z,49.66
2016-12-22T00:20:24.410Z,49.09
2016-12-22T00:21:24.391Z,48.81
2016-12-22T00:22:24.371Z,48.52
2016-12-22T00:23:24.351Z,48.24
2016-12-22T00:24:24.340Z,49.76
2016-12-22T00:25:24.316Z,48.71
2016-12-22T00:26:24.297Z,48.15
2016-12-22T00:27:24.282Z,48.24
2016-12-22T00:28:24.262Z,48.62
2016-12-22T00:29:24.241Z,48.43
2016-12-22T00:30:24.222Z,48.62
2016-12-22T00:31:24.206Z,49.09
2016-12-22T00:32:24.470Z,48.52
2016-12-22T00:33:24.165Z,49.85
2016-12-22T00:34:24.154Z,50.7
2016-12-22T00:35:24.132Z,52.02
2016-12-22T00:36:24.112Z,52.96
2016-12-22T00:37:24.092Z,52.89
2016-12-22T00:38:24.076Z,53.65
2016-12-22T00:39:24.057Z,53.63
2016-12-22T00:40:24.038Z,54.19
2016-12-22T00:41:24.019Z,54
2016-12-22T00:42:24.002Z,53.75
2016-12-22T00:43:23.984Z,52.96
2016-12-22T00:44:23.970Z,53.91
2016-12-22T00:45:23.949Z,53.44
2016-12-22T00:46:23.928Z,54
2016-12-22T00:47:23.907Z,54.57
2016-12-22T00:48:23.892Z,55.26
2016-12-22T00:49:23.871Z,55.07
2016-12-22T00:50:23.858Z,55.73
2016-12-22T00:51:23.837Z,57.03
2016-12-22T00:52:23.819Z,57.9
2016-12-22T00:53:23.800Z,58.47
2016-12-22T00:54:23.782Z,59.13
2016-12-22T00:55:23.765Z,59.57
2016-12-22T00:56:23.746Z,59.03
2016-12-22T00:57:23.728Z,58.25
2016-12-22T00:58:23.710Z,58.09
2016-12-22T00:59:23.691Z,57.62
2016-12-22T01:00:23.717Z,57.71
2016-12-22T01:01:23.657Z,58.37
2016-12-22T01:02:23.636Z,58.25
2016-12-22T01:03:23.616Z,58.72
2016-12-22T01:04:23.599Z,58.25
2016-12-22T01:05:23.580Z,58.72
2016-12-22T01:06:23.562Z,59.19
2016-12-22T01:07:23.545Z,58.82
2016-12-22T01:08:23.525Z,58.53
2016-12-22T01:09:23.507Z,58.44
2016-12-22T01:10:23.488Z,59
2016-12-22T01:11:23.469Z,59.86
2016-12-22T01:12:23.454Z,60.14
2016-12-22T01:13:23.434Z,60.33
2016-12-22T01:14:23.415Z,60.71
2016-12-22T01:15:23.397Z,61.08
2016-12-22T01:16:23.380Z,61.18
2016-12-22T01:17:23.678Z,62.12
2016-12-22T01:18:23.342Z,62.5
2016-12-22T01:19:23.327Z,61.55
2016-12-22T01:20:23.305Z,61.08
2016-12-22T01:21:23.287Z,60.52
2016-12-22T01:22:23.299Z,59.1
2016-12-22T01:23:23.248Z,59.19
2016-12-22T01:24:23.231Z,59.29
2016-12-22T01:25:23.214Z,59.1
2016-12-22T01:26:23.193Z,59.29
2016-12-22T01:27:23.175Z,59.57
2016-12-22T01:28:23.156Z,60.05
2016-12-22T01:29:23.141Z,60.61
2016-12-22T01:30:23.121Z,60.52
2016-12-22T01:31:23.100Z,60.33
2016-12-22T01:32:23.083Z,60.05
2016-12-22T01:33:23.065Z,60.52
2016-12-22T01:34:23.044Z,60.42
2016-12-22T01:35:23.034Z,61.27
2016-12-22T01:36:23.012Z,61.27
2016-12-22T01:37:22.994Z,61.18
2016-12-22T01:38:22.975Z,60.8
2016-12-22T01:39:22.956Z,60.42
2016-12-22T01:40:22.937Z,60.8
2016-12-22T01:41:22.918Z,60.71
2016-12-22T01:42:22.898Z,61.36
2016-12-22T01:43:22.881Z,61.18
2016-12-22T01:44:22.864Z,61.36
2016-12-22T01:45:23.166Z,62.02
2016-12-22T01:46:22.825Z,62.59
2016-12-22T01:47:22.809Z,63.07
2016-12-22T01:48:22.788Z,63.26
2016-12-22T01:49:22.770Z,63.16
2016-12-22T01:50:22.751Z,63.16
2016-12-22T01:51:22.736Z,62.21
2016-12-22T01:52:22.714Z,63.07
2016-12-22T01:53:22.695Z,62.31
2016-12-22T01:54:22.678Z,62.5
2016-12-22T01:55:22.661Z,62.31
2016-12-22T01:56:22.647Z,62.12
2016-12-22T01:57:22.623Z,62.59
2016-12-22T01:58:22.605Z,63.26
2016-12-22T01:59:22.585Z,63.45
2016-12-22T02:00:22.568Z,63.26
2016-12-22T02:01:22.548Z,63.16
2016-12-22T02:02:22.530Z,63.07
2016-12-22T02:03:22.512Z,63.16
2016-12-22T02:04:22.492Z,62.78
2016-12-22T02:05:22.613Z,63.54
2016-12-22T02:06:22.456Z,63.63
2016-12-22T02:07:22.437Z,60.52
2016-12-22T02:08:22.419Z,58.63
2016-12-22T02:09:22.399Z,59.29
2016-12-22T02:10:22.625Z,59.19
2016-12-22T02:11:22.371Z,59.95
2016-12-22T02:12:22.343Z,60.24
2016-12-22T02:13:22.324Z,60.33
2016-12-22T02:14:22.308Z,59.86
2016-12-22T02:15:22.288Z,60.33
2016-12-22T02:16:22.269Z,59.76
2016-12-22T02:17:22.254Z,59.29
2016-12-22T02:18:22.235Z,58.72
2016-12-22T02:19:22.215Z,58.72
2016-12-22T02:20:22.197Z,60.33
2016-12-22T02:21:22.442Z,62.12
2016-12-22T02:22:22.357Z,63.63
2016-12-22T02:23:22.141Z,64.58
2016-12-22T02:24:22.123Z,65.33
2016-12-22T02:25:22.104Z,65.71
2016-12-22T02:26:22.086Z,66.09
2016-12-22T02:27:22.069Z,65.8
2016-12-22T02:28:22.049Z,66.37
2016-12-22T02:29:22.032Z,66.75
2016-12-22T02:30:22.012Z,65.9
2016-12-22T02:31:21.995Z,65.8
2016-12-22T02:32:21.976Z,65.52
2016-12-22T02:33:21.956Z,66.09
2016-12-22T02:34:21.938Z,65.9
2016-12-22T02:35:21.920Z,65.9
2016-12-22T02:36:21.901Z,65.61
2016-12-22T02:37:21.910Z,65.8
2016-12-22T02:38:21.864Z,65.52
2016-12-22T02:39:21.847Z,65.23
2016-12-22T02:40:21.825Z,64.86
2016-12-22T02:41:21.810Z,64.39
2016-12-22T02:42:21.789Z,64.67
2016-12-22T02:43:21.771Z,65.33
2016-12-22T02:44:21.753Z,65.33
2016-12-22T02:45:21.736Z,65.42
2016-12-22T02:46:21.716Z,65.52
2016-12-22T02:47:21.694Z,65.14
2016-12-22T02:48:21.681Z,64.39
2016-12-22T02:49:21.658Z,64.67
2016-12-22T02:50:21.640Z,64.67
2016-12-22T02:51:21.621Z,64.58
2016-12-22T02:52:21.604Z,64.95
2016-12-22T02:53:21.587Z,65.33
2016-12-22T02:54:21.567Z,65.42
2016-12-22T02:55:21.548Z,65.61
2016-12-22T02:56:21.529Z,66.28
2016-12-22T02:57:21.510Z,66.75
2016-12-22T02:58:21.494Z,67.32
2016-12-22T02:59:21.471Z,67.41
2016-12-22T03:00:21.456Z,67.03
2016-12-22T03:01:21.439Z,67.79
2016-12-22T03:02:21.420Z,68.63
2016-12-22T03:03:21.398Z,69.01
2016-12-22T03:04:21.379Z,69.01
2016-12-22T03:05:21.371Z,68.73
2016-12-22T03:06:21.342Z,68.07
2016-12-22T03:07:21.329Z,68.35
2016-12-22T03:08:21.306Z,68.26
2016-12-22T03:09:21.288Z,68.63
2016-12-22T03:10:21.270Z,67.97
2016-12-22T03:11:21.252Z,68.07
2016-12-22T03:12:21.230Z,67.13
2016-12-22T03:13:21.214Z,67.41
2016-12-22T03:14:21.191Z,67.88
2016-12-22T03:15:21.178Z,66.84
2016-12-22T03:16:21.160Z,66.65
2016-12-22T03:17:21.138Z,67.41
2016-12-22T03:18:21.120Z,67.6
2016-12-22T03:19:21.104Z,66.65
2016-12-22T03:20:21.081Z,66.65
2016-12-22T03:21:21.063Z,66.28
2016-12-22T03:22:21.044Z,66.47
2016-12-22T03:23:21.028Z,66.18
2016-12-22T03:24:21.005Z,67.22
2016-12-22T03:25:20.990Z,68.07
2016-12-22T03:26:20.972Z,68.26
2016-12-22T03:27:20.952Z,67.97
2016-12-22T03:28:20.936Z,67.22
2016-12-22T03:29:20.914Z,67.41
2016-12-22T03:30:20.899Z,67.03
2016-12-22T03:31:20.877Z,65.71
2016-12-22T03:32:20.860Z,65.8
2016-12-22T03:33:20.838Z,66.84
2016-12-22T03:34:20.828Z,68.07
2016-12-22T03:35:20.803Z,69.11
2016-12-22T03:36:20.783Z,68.92
2016-12-22T03:37:20.768Z,69.58
2016-12-22T03:38:20.748Z,69.77
2016-12-22T03:39:20.731Z,70.24
2016-12-22T03:40:20.710Z,70.15
2016-12-22T03:41:20.694Z,70.24
2016-12-22T03:42:20.690Z,70.24
2016-12-22T03:43:20.653Z,68.63
2016-12-22T03:44:20.635Z,68.73
2016-12-22T03:45:20.617Z,68.44
2016-12-22T03:46:20.602Z,68.82
2016-12-22T03:47:20.580Z,69.11
2016-12-22T03:48:20.561Z,70.24
2016-12-22T03:49:20.543Z,70.62
2016-12-22T03:50:20.525Z,71.19
2016-12-22T03:51:20.505Z,70.53
2016-12-22T03:52:20.490Z,70.62
2016-12-22T03:53:20.471Z,70.81
2016-12-22T03:54:20.451Z,70.9
2016-12-22T03:55:20.433Z,70.72
2016-12-22T03:56:20.412Z,71.47
2016-12-22T03:57:20.395Z,71.56
2016-12-22T03:58:20.378Z,72.32
2016-12-22T03:59:20.356Z,72.32
2016-12-22T04:00:20.344Z,71.47
2016-12-22T04:01:20.318Z,70.72
2016-12-22T04:02:20.301Z,71.47
2016-12-22T04:03:20.281Z,70.9
2016-12-22T04:04:20.263Z,70.9
2016-12-22T04:05:20.247Z,70.9
2016-12-22T04:06:20.228Z,71.37
2016-12-22T04:07:20.210Z,71.37
2016-12-22T04:08:20.191Z,71.47
2016-12-22T04:09:20.172Z,72.32
2016-12-22T04:10:20.155Z,71.28
2016-12-22T04:11:20.135Z,70.72
2016-12-22T04:12:20.117Z,70.81
2016-12-22T04:13:20.100Z,70.9
2016-12-22T04:14:20.079Z,71
2016-12-22T04:15:20.060Z,71.66
2016-12-22T04:16:20.041Z,72.32
2016-12-22T04:17:20.024Z,72.22
2016-12-22T04:18:20.320Z,73.64
2016-12-22T04:19:19.987Z,73.45
2016-12-22T04:20:19.968Z,74.3
2016-12-22T04:21:19.948Z,74.87
2016-12-22T04:22:19.931Z,74.21
2016-12-22T04:23:19.915Z,74.58
2016-12-22T04:24:19.895Z,74.87
2016-12-22T04:25:19.880Z,75.62
2016-12-22T04:26:19.855Z,75.53
2016-12-22T04:27:19.838Z,75.62
2016-12-22T04:28:20.135Z,75.9
2016-12-22T04:29:19.801Z,76.38
2016-12-22T04:30:19.784Z,76.38
2016-12-22T04:31:19.767Z,77.13
2016-12-22T04:32:19.744Z,77.89
2016-12-22T04:33:19.730Z,77.61
2016-12-22T04:34:19.707Z,77.98
2016-12-22T04:35:19.691Z,77.7
2016-12-22T04:36:19.670Z,77.98
2016-12-22T04:37:19.653Z,77.7
2016-12-22T04:38:19.639Z,78.17
2016-12-22T04:39:19.615Z,77.89
2016-12-22T04:40:19.598Z,78.08
2016-12-22T04:41:19.580Z,77.51
2016-12-22T04:42:19.560Z,76.76
2016-12-22T04:43:19.546Z,76.95
2016-12-22T04:44:19.523Z,76.28
2016-12-22T04:45:19.505Z,75.53
2016-12-22T04:46:19.484Z,74.4
2016-12-22T04:47:19.466Z,74.49
2016-12-22T04:48:19.449Z,74.96
2016-12-22T04:49:19.430Z,75.53
2016-12-22T04:50:19.411Z,75.81
2016-12-22T04:51:19.393Z,76.28
2016-12-22T04:52:19.376Z,76.66
2016-12-22T04:53:19.356Z,76.38
2016-12-22T04:54:19.337Z,76.28
2016-12-22T04:55:19.320Z,76.19
2016-12-22T04:56:19.300Z,76.09
2016-12-22T04:57:19.282Z,76.09
2016-12-22T04:58:19.264Z,76.19
2016-12-22T04:59:19.246Z,76.19
2016-12-22T05:00:19.225Z,76.19
2016-12-22T05:01:19.207Z,75.53
2016-12-22T05:02:19.190Z,75.71
2016-12-22T05:03:19.169Z,76
2016-12-22T05:04:19.150Z,76.19
2016-12-22T05:05:19.134Z,76.76
2016-12-22T05:06:19.114Z,78.27
2016-12-22T05:07:19.098Z,78.36
2016-12-22T05:08:19.077Z,78.17
2016-12-22T05:09:19.059Z,77.8
2016-12-22T05:10:19.041Z,77.89
2016-12-22T05:11:19.023Z,78.74
2016-12-22T05:12:19.003Z,79.3
2016-12-22T05:13:18.988Z,79.11
2016-12-22T05:14:18.969Z,79.21
2016-12-22T05:15:18.947Z,81.2
2016-12-22T05:16:18.930Z,80.82
2016-12-22T05:17:18.910Z,80.91
2016-12-22T05:18:18.893Z,80.63
2016-12-22T05:19:18.882Z,80.53
2016-12-22T05:20:18.855Z,80.53
2016-12-22T05:21:18.838Z,80.15
2016-12-22T05:22:18.819Z,79.97
2016-12-22T05:23:18.801Z,79.68
2016-12-22T05:24:18.780Z,79.11
2016-12-22T05:25:18.762Z,79.11
2016-12-22T05:26:18.744Z,78.92
2016-12-22T05:27:18.723Z,77.89
2016-12-22T05:28:18.709Z,77.04
2016-12-22T05:29:18.688Z,76
2016-12-22T05:30:18.669Z,75.71
2016-12-22T05:31:18.650Z,76.09
2016-12-22T05:32:18.627Z,76.47
2016-12-22T05:33:18.616Z,77.04
2016-12-22T05:34:18.593Z,76.85
2016-12-22T05:35:18.574Z,76.85
2016-12-22T05:36:18.555Z,77.23
2016-12-22T05:37:18.537Z,76.09
2016-12-22T05:38:18.519Z,76.09
2016-12-22T05:39:18.501Z,75.71
2016-12-22T05:40:18.481Z,75.62
2016-12-22T05:41:18.464Z,76
2016-12-22T05:42:18.443Z,76
2016-12-22T05:43:18.426Z,75.62
2016-12-22T05:44:18.420Z,75.71
2016-12-22T05:45:18.387Z,75.53
2016-12-22T05:46:18.371Z,75.43
2016-12-22T05:47:18.350Z,75.62
2016-12-22T05:48:18.335Z,75.62
2016-12-22T05:49:18.315Z,76.19
2016-12-22T05:50:18.296Z,76
2016-12-22T05:51:18.282Z,76
2016-12-22T05:52:18.257Z,75.53
2016-12-22T05:53:18.240Z,76
2016-12-22T05:54:18.222Z,75.43
2016-12-22T05:55:18.201Z,75.34
2016-12-22T05:56:18.185Z,75.81
2016-12-22T05:57:18.166Z,76.09
2016-12-22T05:58:18.151Z,76.09
2016-12-22T05:59:18.130Z,76
2016-12-22T06:00:18.110Z,76.66
2016-12-22T06:01:18.090Z,77.04
2016-12-22T06:02:18.071Z,76.28
2016-12-22T06:03:18.056Z,76.09
2016-12-22T06:04:18.351Z,76.38
2016-12-22T06:05:18.012Z,76.57
2016-12-22T06:06:17.996Z,77.04
2016-12-22T06:07:17.977Z,77.23
2016-12-22T06:08:17.959Z,77.13
2016-12-22T06:09:17.939Z,77.23
2016-12-22T06:10:17.919Z,77.89
2016-12-22T06:11:17.905Z,77.98
2016-12-22T06:12:17.883Z,77.42
2016-12-22T06:13:17.864Z,77.51
2016-12-22T06:14:17.848Z,77.61
2016-12-22T06:15:17.827Z,78.27
2016-12-22T06:16:17.809Z,77.8
2016-12-22T06:17:17.791Z,79.11
2016-12-22T06:18:17.772Z,78.55
2016-12-22T06:19:17.752Z,78.36
2016-12-22T06:20:17.732Z,79.21
2016-12-22T06:21:17.715Z,80.15
2016-12-22T06:22:17.695Z,79.78
2016-12-22T06:23:17.675Z,80.72
2016-12-22T06:24:17.668Z,81.57
2016-12-22T06:25:17.637Z,81.57
2016-12-22T06:26:17.622Z,81.57
2016-12-22T06:27:17.600Z,81.76
2016-12-22T06:28:17.583Z,81.67
2016-12-22T06:29:17.563Z,82.04
2016-12-22T06:30:17.546Z,81.95
2016-12-22T06:31:17.526Z,82.99
2016-12-22T06:32:17.511Z,82.89
2016-12-22T06:33:17.490Z,83.65
2016-12-22T06:34:17.467Z,84.59
2016-12-22T06:35:17.448Z,84.88
2016-12-22T06:36:17.434Z,84.59
2016-12-22T06:37:17.423Z,84.22
2016-12-22T06:38:17.394Z,84.22
2016-12-22T06:39:17.378Z,83.46
2016-12-22T06:40:17.358Z,84.03
2016-12-22T06:41:17.338Z,84.12
2016-12-22T06:42:17.317Z,83.84
2016-12-22T06:43:17.304Z,84.03
2016-12-22T06:44:17.281Z,85.16
2016-12-22T06:45:17.267Z,86.48
2016-12-22T06:46:17.242Z,86.01
2016-12-22T06:47:17.222Z,87.05
2016-12-22T06:48:17.205Z,87.05
2016-12-22T06:49:17.185Z,87.05
2016-12-22T06:50:17.169Z,87.52
2016-12-22T06:51:17.151Z,87.71
2016-12-22T06:52:17.140Z,88.46
2016-12-22T06:53:17.108Z,89.88
2016-12-22T06:54:17.092Z,91.2
2016-12-22T06:55:17.075Z,92.52
2016-12-22T06:56:17.058Z,93.84
2016-12-22T06:57:17.033Z,94.32
2016-12-22T06:58:17.021Z,94.98
2016-12-22T06:59:16.998Z,94.32
2016-12-22T07:00:16.979Z,94.13
2016-12-22T07:01:16.959Z,94.98
2016-12-22T07:02:16.944Z,94.89
2016-12-22T07:03:16.923Z,95.17
2016-12-22T07:04:16.902Z,95.73
2016-12-22T07:05:16.887Z,95.54
2016-12-22T07:06:16.866Z,94.79
2016-12-22T07:07:16.845Z,94.79
2016-12-22T07:08:16.829Z,94.89
2016-12-22T07:09:16.809Z,95.73
2016-12-22T07:10:16.793Z,96.2
2016-12-22T07:11:16.770Z,96.68
2016-12-22T07:12:16.752Z,95.64
2016-12-22T07:13:16.733Z,95.17
2016-12-22T07:14:16.718Z,94.98
2016-12-22T07:15:16.696Z,94.98
2016-12-22T07:16:16.677Z,95.17
2016-12-22T07:17:16.659Z,95.36
2016-12-22T07:18:16.646Z,95.54
2016-12-22T07:19:16.618Z,93.94
2016-12-22T07:20:16.600Z,94.13
2016-12-22T07:21:16.584Z,94.89
2016-12-22T07:22:16.563Z,94.51
2016-12-22T07:23:16.544Z,94.51
2016-12-22T07:24:16.528Z,93.75
2016-12-22T07:25:16.508Z,94.51
2016-12-22T07:26:16.488Z,94.7
2016-12-22T07:27:16.468Z,93.37
2016-12-22T07:28:16.449Z,93.84
2016-12-22T07:29:16.433Z,93.84
2016-12-22T07:30:16.411Z,92.99
2016-12-22T07:31:16.443Z,93.66
2016-12-22T07:32:16.377Z,93.47
2016-12-22T07:33:16.356Z,92.61
2016-12-22T07:34:16.339Z,92.24
2016-12-22T07:35:16.317Z,92.52
2016-12-22T07:36:16.299Z,93.18
2016-12-22T07:37:16.279Z,95.92
2016-12-22T07:38:16.261Z,96.96
2016-12-22T07:39:16.249Z,96.68
2016-12-22T07:40:16.224Z,95.07
2016-12-22T07:41:16.204Z,94.51
2016-12-22T07:42:16.183Z,94.51
2016-12-22T07:43:16.167Z,93.56
2016-12-22T07:44:16.146Z,93.09
2016-12-22T07:45:16.128Z,93.75
2016-12-22T07:46:16.423Z,93.56
2016-12-22T07:47:16.091Z,94.7
2016-12-22T07:48:16.068Z,95.07
2016-12-22T07:49:16.054Z,95.07
2016-12-22T07:50:16.033Z,94.51
2016-12-22T07:51:16.015Z,95.36
2016-12-22T07:52:15.991Z,96.77
2016-12-22T07:53:15.972Z,96.68
2016-12-22T07:54:15.960Z,96.58
2016-12-22T07:55:15.938Z,96.86
2016-12-22T07:56:15.917Z,96.77
2016-12-22T07:57:15.901Z,96.86
2016-12-22T07:58:15.880Z,96.39
2016-12-22T07:59:15.864Z,96.11
2016-12-22T08:00:15.843Z,94.6
2016-12-22T08:01:15.826Z,94.89
2016-12-22T08:02:15.804Z,94.98
2016-12-22T08:03:15.786Z,95.36
2016-12-22T08:04:15.767Z,94.98
2016-12-22T08:05:15.750Z,95.45
2016-12-22T08:06:15.730Z,95.73
2016-12-22T08:07:15.712Z,96.3
2016-12-22T08:08:15.692Z,96.49
2016-12-22T08:09:15.672Z,95.64
2016-12-22T08:10:15.654Z,96.11
2016-12-22T08:11:15.632Z,96.39
2016-12-22T08:12:15.616Z,95.73
2016-12-22T08:13:15.599Z,96.39
2016-12-22T08:14:15.584Z,96.2
2016-12-22T08:15:15.564Z,95.92
2016-12-22T08:16:15.542Z,95.83
2016-12-22T08:17:15.521Z,95.36
2016-12-22T08:18:15.501Z,95.17
2016-12-22T08:19:15.484Z,94.32
2016-12-22T08:20:15.462Z,94.13
2016-12-22T08:21:15.773Z,94.13
2016-12-22T08:22:15.739Z,94.32
2016-12-22T08:23:15.435Z,94.22
2016-12-22T08:24:15.387Z,94.13
2016-12-22T08:25:15.372Z,93.84
2016-12-22T08:26:15.352Z,93.47
2016-12-22T08:27:15.339Z,93.66
2016-12-22T08:28:15.311Z,93.47
2016-12-22T08:29:15.295Z,93.66
2016-12-22T08:30:15.277Z,92.99
2016-12-22T08:31:15.259Z,93.18
2016-12-22T08:32:15.240Z,92.24
2016-12-22T08:33:15.219Z,91.96
2016-12-22T08:34:15.201Z,91.58
2016-12-22T08:35:15.186Z,91.3
2016-12-22T08:36:15.163Z,91.96
2016-12-22T08:37:15.143Z,91.67
2016-12-22T08:38:15.125Z,91.58
2016-12-22T08:39:15.108Z,91.82
2016-12-22T08:40:15.088Z,91.2
2016-12-22T08:41:15.070Z,91.72
2016-12-22T08:42:15.051Z,91.82
2016-12-22T08:43:15.036Z,91.63
2016-12-22T08:44:15.017Z,91.91
2016-12-22T08:45:14.995Z,91.63
2016-12-22T08:46:14.975Z,91.63
2016-12-22T08:47:14.958Z,91.44
2016-12-22T08:48:14.940Z,92.66
2016-12-22T08:49:14.922Z,92.29
2016-12-22T08:50:14.905Z,93.13
2016-12-22T08:51:14.887Z,94.18
2016-12-22T08:52:14.867Z,95.12
2016-12-22T08:53:14.848Z,95.59
2016-12-22T08:54:14.833Z,95.12
2016-12-22T08:55:14.812Z,95.12
2016-12-22T08:56:14.795Z,95.21
2016-12-22T08:57:14.778Z,95.97
2016-12-22T08:58:14.764Z,96.35
2016-12-22T08:59:14.743Z,95.78
2016-12-22T09:00:14.723Z,95.5
2016-12-22T09:01:14.703Z,94.84
2016-12-22T09:02:14.684Z,95.03
2016-12-22T09:03:14.668Z,95.21
2016-12-22T09:04:14.650Z,95.03
2016-12-22T09:05:14.632Z,95.21
2016-12-22T09:06:14.617Z,95.87
2016-12-22T09:07:14.598Z,96.63
2016-12-22T09:08:14.575Z,96.54
2016-12-22T09:09:14.559Z,95.68
2016-12-22T09:10:14.539Z,96.16
2016-12-22T09:11:14.521Z,97.01
2016-12-22T09:12:14.824Z,97.1
2016-12-22T09:13:14.484Z,97.39
2016-12-22T09:14:14.466Z,97.58
2016-12-22T09:15:14.447Z,97.48
2016-12-22T09:16:14.431Z,98
2016-12-22T09:17:14.411Z,98.99
2016-12-22T09:19:23.831Z,99.56
2016-12-22T09:22:20.918Z,99.65
2016-12-22T09:23:19.977Z,97.29
2016-12-22T09:24:19.954Z,97.2
2016-12-22T09:25:19.938Z,97.39
2016-12-22T09:26:19.918Z,97.58
2016-12-22T09:27:19.900Z,98.14
2016-12-22T09:28:19.883Z,98.24
2016-12-22T09:29:19.863Z,96.82
2016-12-22T09:30:19.848Z,98.71
2016-12-22T09:31:19.828Z,99.99
2016-12-22T09:32:19.812Z,99.99
2016-12-22T09:33:19.789Z,99.94
2016-12-22T09:34:19.773Z,99.99
2016-12-22T09:35:19.755Z,99.41
2016-12-22T09:36:19.737Z,99.56
2016-12-22T09:37:19.717Z,99.99
2016-12-22T09:38:19.700Z,99.27
2016-12-22T09:39:19.681Z,98.43
2016-12-22T09:40:19.664Z,98.05
2016-12-22T09:41:19.645Z,96.63
2016-12-22T09:42:19.628Z,96.73
2016-12-22T09:43:19.608Z,98.24
2016-12-22T09:44:19.590Z,97.86
2016-12-22T09:45:19.571Z,97.86
2016-12-22T09:46:19.554Z,97.39
2016-12-22T09:47:19.536Z,98.24
2016-12-22T09:48:19.516Z,99.84
2016-12-22T09:49:19.500Z,99.94
2016-12-22T09:50:19.485Z,99.99
2016-12-22T09:51:19.472Z,99.99
2016-12-22T09:52:19.445Z,99.99
2016-12-22T09:53:19.427Z,99.99
2016-12-22T09:54:19.409Z,99.99
2016-12-22T09:55:19.391Z,99.99
2016-12-22T09:56:19.372Z,99.99
2016-12-22T09:57:19.356Z,99.99
2016-12-22T09:58:19.336Z,99.99
2016-12-22T09:59:19.316Z,99.99
2016-12-22T10:00:19.301Z,99.99
2016-12-22T10:01:19.282Z,99.99
2016-12-22T10:02:19.263Z,99.99
2016-12-22T10:03:19.244Z,99.99
2016-12-22T10:04:19.229Z,99.99
2016-12-22T10:05:19.238Z,99.99
2016-12-22T10:06:19.193Z,99.99
2016-12-22T10:07:19.173Z,99.99
2016-12-22T10:08:19.162Z,99.99
2016-12-22T10:09:19.138Z,99.99
2016-12-22T10:10:19.117Z,99.99
2016-12-22T10:11:19.107Z,99.84
2016-12-22T10:12:19.085Z,99.37
2016-12-22T10:13:19.064Z,99.84
2016-12-22T10:14:19.046Z,99.99
2016-12-22T10:15:19.034Z,99.99
2016-12-22T10:16:19.011Z,99.99
2016-12-22T10:17:18.993Z,99.99
2016-12-22T10:18:19.311Z,99.99
2016-12-22T10:19:18.957Z,99.99
2016-12-22T10:20:18.942Z,99.99
2016-12-22T10:21:18.924Z,99.99
2016-12-22T10:22:18.905Z,99.99
2016-12-22T10:23:18.887Z,99.99
2016-12-22T10:24:18.870Z,99.99
2016-12-22T10:25:18.852Z,99.99
2016-12-22T10:26:18.834Z,99.99
2016-12-22T10:27:18.818Z,99.99
2016-12-22T10:28:19.121Z,99.99
2016-12-22T10:29:18.780Z,99.99
2016-12-22T10:30:18.763Z,99.99
2016-12-22T10:31:18.744Z,99.99
2016-12-22T10:32:18.729Z,99.99
2016-12-22T10:33:18.710Z,99.99
2016-12-22T10:34:18.694Z,99.99
2016-12-22T10:35:18.679Z,99.99
2016-12-22T10:36:18.660Z,99.99
2016-12-22T10:37:18.643Z,99.99
2016-12-22T10:38:18.628Z,99.99
2016-12-22T10:39:18.606Z,99.99
2016-12-22T10:40:18.590Z,99.99
2016-12-22T10:41:18.576Z,99.99
2016-12-22T10:42:18.554Z,99.99
2016-12-22T10:43:18.547Z,99.99
2016-12-22T10:44:18.543Z,99.99
2016-12-22T10:45:18.502Z,99.99
2016-12-22T10:46:18.486Z,99.99
2016-12-22T10:47:18.482Z,99.99
2016-12-22T10:48:18.448Z,99.99
2016-12-22T10:49:18.432Z,99.99
2016-12-22T10:50:18.414Z,99.99
2016-12-22T10:51:18.397Z,99.99
2016-12-22T10:52:18.381Z,99.99
2016-12-22T10:53:18.368Z,99.99
2016-12-22T10:54:18.347Z,99.99
2016-12-22T10:55:18.330Z,99.99
2016-12-22T10:56:18.312Z,99.99
2016-12-22T10:57:18.306Z,99.99
2016-12-22T10:58:18.279Z,99.99
2016-12-22T10:59:18.261Z,99.99
2016-12-22T11:00:18.248Z,99.99
2016-12-22T11:01:18.226Z,99.99
2016-12-22T11:02:18.214Z,99.99
2016-12-22T11:03:18.195Z,99.99
2016-12-22T11:04:18.181Z,99.99
2016-12-22T11:05:18.161Z,99.99
2016-12-22T11:06:18.141Z,99.99
2016-12-22T11:07:18.126Z,99.99
2016-12-22T11:08:18.113Z,99.99
2016-12-22T11:09:18.092Z,99.99
2016-12-22T11:10:18.076Z,99.99
2016-12-22T11:11:18.062Z,99.99
2016-12-22T11:12:18.042Z,99.99
2016-12-22T11:13:18.341Z,99.99
2016-12-22T11:14:18.010Z,99.99
2016-12-22T11:15:18.027Z,99.99
2016-12-22T11:16:17.977Z,99.99
2016-12-22T11:17:17.960Z,99.99
2016-12-22T11:18:17.945Z,99.99
2016-12-22T11:19:17.927Z,99.99
2016-12-22T11:20:17.916Z,99.99
2016-12-22T11:21:17.897Z,99.99
2016-12-22T11:22:17.879Z,99.99
2016-12-22T11:23:17.859Z,99.99
2016-12-22T11:24:17.846Z,99.99
2016-12-22T11:25:17.830Z,99.99
2016-12-22T11:26:17.811Z,99.99
2016-12-22T11:27:17.797Z,99.99
2016-12-22T11:28:17.783Z,99.99
2016-12-22T11:29:17.762Z,99.99
2016-12-22T11:30:17.747Z,99.99
2016-12-22T11:31:17.733Z,99.99
2016-12-22T11:32:17.716Z,99.99
2016-12-22T11:33:17.700Z,99.99
2016-12-22T11:34:17.686Z,99.99
2016-12-22T11:35:17.671Z,99.99
2016-12-22T11:36:17.653Z,99.99
2016-12-22T11:37:17.636Z,99.99
2016-12-22T11:38:17.623Z,99.99
2016-12-22T11:39:17.610Z,99.99
2016-12-22T11:40:17.587Z,99.99
2016-12-22T11:41:17.574Z,99.99
2016-12-22T11:42:17.555Z,99.99
2016-12-22T11:43:17.543Z,99.99
2016-12-22T11:44:17.523Z,99.99
2016-12-22T11:45:17.508Z,99.99
2016-12-22T11:46:17.494Z,99.99
2016-12-22T11:47:17.476Z,99.99
2016-12-22T11:48:17.461Z,99.99
2016-12-22T11:49:17.445Z,99.99
2016-12-22T11:50:17.429Z,99.99
2016-12-22T11:51:17.417Z,99.99
2016-12-22T11:52:17.398Z,99.99
2016-12-22T11:53:17.381Z,99.99
2016-12-22T11:54:17.365Z,99.99
2016-12-22T11:55:17.350Z,99.99
2016-12-22T11:56:17.334Z,99.99
2016-12-22T11:57:17.317Z,99.99
2016-12-22T11:58:17.301Z,99.99
2016-12-22T11:59:17.285Z,99.99
2016-12-22T12:00:17.269Z,99.99
2016-12-22T12:01:17.258Z,99.99
2016-12-22T12:02:17.240Z,99.99
2016-12-22T12:03:17.227Z,99.99
2016-12-22T12:04:17.208Z,99.99
2016-12-22T12:05:17.195Z,99.99
2016-12-22T12:06:17.176Z,99.99
2016-12-22T12:07:17.162Z,99.99
2016-12-22T12:08:17.145Z,99.99
2016-12-22T12:09:17.131Z,99.99
2016-12-22T12:10:17.112Z,99.99
2016-12-22T12:11:17.098Z,99.99
2016-12-22T12:12:17.083Z,99.99
2016-12-22T12:13:17.066Z,99.99
2016-12-22T12:14:17.050Z,99.99
2016-12-22T12:15:17.038Z,99.99
2016-12-22T12:16:17.019Z,99.99
2016-12-22T12:17:17.003Z,99.99
2016-12-22T12:18:16.988Z,99.99
2016-12-22T12:19:16.972Z,99.99
2016-12-22T12:20:16.956Z,99.99
2016-12-22T12:21:16.946Z,99.99
2016-12-22T12:22:16.923Z,99.99
2016-12-22T12:23:16.911Z,99.99
2016-12-22T12:24:16.895Z,99.99
2016-12-22T12:25:17.199Z,99.99
2016-12-22T12:26:16.867Z,99.99
2016-12-22T12:27:16.849Z,99.99
2016-12-22T12:28:16.829Z,99.99
2016-12-22T12:29:16.816Z,99.99
2016-12-22T12:30:16.797Z,99.99
2016-12-22T12:31:16.785Z,99.99
2016-12-22T12:32:16.766Z,99.99
2016-12-22T12:33:16.751Z,99.99
2016-12-22T12:34:16.737Z,99.99
2016-12-22T12:35:16.722Z,99.99
2016-12-22T12:36:16.704Z,99.99
2016-12-22T12:37:16.687Z,99.99
2016-12-22T12:38:16.674Z,99.99
2016-12-22T12:39:16.660Z,99.99
2016-12-22T12:40:16.639Z,99.99
2016-12-22T12:41:16.648Z,99.99
2016-12-22T12:42:16.610Z,99.99
2016-12-22T12:43:16.593Z,99.99
2016-12-22T12:44:16.576Z,99.99
2016-12-22T12:45:16.561Z,99.99
2016-12-22T12:46:16.546Z,99.99
2016-12-22T12:47:16.530Z,99.99
2016-12-22T12:48:16.513Z,99.99
2016-12-22T12:49:16.499Z,99.99
2016-12-22T12:50:16.481Z,99.99
2016-12-22T12:51:16.467Z,99.99
2016-12-22T12:52:16.451Z,99.99
2016-12-22T12:53:16.436Z,99.99
2016-12-22T12:54:16.419Z,99.99
2016-12-22T12:55:16.402Z,99.99
2016-12-22T12:56:16.389Z,99.99
2016-12-22T12:57:16.373Z,99.99
2016-12-22T12:58:16.356Z,99.99